Story City, IA (50248)

11:30 PM CDT on August 18, 2017 (GMT -0500)
Prairie Ridge | | Change Station
Active Advisory: Severe Thunderstorm Watch

Elev 1010 ft 42.19 °N, 93.58 °W | Updated 9 seconds ago

Rain
Rain
68.5 °F
Feels Like 68.5 °F
N
1.1
Wind Variable Wind from South
Gusts 2.5 mph

Today
High -- | Low -- °F
--% Chance of Precip.
Yesterday
High -- | Low -- °F
Precip. -- in
Pressure 29.92 in
Visibility 9.0 miles
Clouds Few 2300 ft
Scattered Clouds 6000 ft
Mostly Cloudy 12000 ft
Dew Point 54 °F
Humidity 60%
Rainfall 0.00 in
Snow Depth Not available.
6:25 AM 8:10 PM
Waning Crescent, 9% visible
SPECI KAMW 190420Z AUTO 00000KT 9SM VCTS -RA FEW023 SCT060 BKN120 19/19 A2992 RMK AO2 LTG DSNT N RAB17 P0000 T01940189
Pressure 29.92 in
Visibility 9.0 miles
Clouds Few 2300 ft
Scattered Clouds 6000 ft
Mostly Cloudy 12000 ft
Dew Point 54 °F
Humidity 60%
Rainfall 0.00 in
Snow Depth Not available.
6:25 AM 8:10 PM
Waning Crescent, 9% visible
SPECI KAMW 190420Z AUTO 00000KT 9SM VCTS -RA FEW023 SCT060 BKN120 19/19 A2992 RMK AO2 LTG DSNT N RAB17 P0000 T01940189

Get Your Daily Forecast Email!

Thanks for signing up!

Be on the lookout for a verification email in your inbox.

You'll start receiving severe weather alerts in your inbox..

×

10-Day Weather Forecast

Almanac

Astronomy

Aug. 18, 2017 Rise Set
Actual Time
Civil Twilight
Nautical Twilight
Astronomical Twilight
Moon
Length of Visible Light
Length of Day
Tomorrow will be .
, % of the Moon is Illuminated

Today's Extremes

State Highs State Lows

Community

WunderPhotos

Category 6

Welcome to Category 6. This is the collective home for Weather Underground's featured writeups by Dr. Jeff Masters (right), Bob Henson (left), Chris Burt, and other regular contributors.

Nearby

Air Quality

  Air Quality AQ Index Pollutant
Not available.

Snow Depth

Station Depth Elevation

Earthquake Activity

City Distance Mag. Time & Date
Minimum magnitude displayed is 2.5.

Coastal Water Temperatures

Place Temperature

Stations

Nearby Weather Stations

Station Location Temp. Windchill Dew Point Humidity Wind Precip. Elev Updated Type
                   

Watches & Warnings

Severe Thunderstorm Watch
Issued: 11:24 PM CDT Aug. 18, 2017 – National Weather Service

Severe Thunderstorm Watch 456 remains in effect until 100 am CDT
for the following locations


IA
. Iowa counties included are

Adair Audubon Boone
Butler Calhoun Carroll
Crawford Dallas Franklin
Greene Grundy Guthrie
Hamilton Hardin Humboldt
Jasper Madison Mahaska
Marion Marshall Pocahontas
Polk Poweshiek SAC
story Tama Warren
Webster Wright